Time;durP1;ratioP1;P1;durP2;ratioP2;P2;SDS_P1;SDS_P2;PMS_P1;PMS_P2;Temp;Humidity;BMP_temperature;BMP_pressure;BME280_temperature;BME280_humidity;BME280_pressure;Samples;Min_cycle;Max_cycle;Signal;HPM_P1;HPM_P2
2023/11/02 00:02:20;;;;;;;1.55;1.05;;;11.50;99.90;;;;;;5041945;28;20911;-38
2023/11/02 00:04:47;;;;;;;2.20;1.05;;;11.50;99.90;;;;;;5042366;28;20435;-37
2023/11/02 00:07:13;;;;;;;1.55;0.65;;;11.50;99.90;;;;;;5041676;28;20743;-36
2023/11/02 00:09:39;;;;;;;1.15;0.90;;;11.50;99.90;;;;;;5041848;28;20110;-35
2023/11/02 00:12:12;;;;;;;1.02;0.80;;;11.50;99.90;;;;;;5043128;28;20113;-36
2023/11/02 00:14:45;;;;;;;1.73;1.00;;;11.50;99.90;;;;;;5043313;28;20029;-37
2023/11/02 00:17:30;;;;;;;3.10;0.90;;;11.50;99.90;;;;;;5042439;28;20140;-37
2023/11/02 00:19:56;;;;;;;2.13;0.80;;;11.40;99.90;;;;;;5041779;28;20036;-36
2023/11/02 00:22:21;;;;;;;3.03;1.13;;;11.40;99.90;;;;;;5041426;28;20029;-35
2023/11/02 00:24:49;;;;;;;1.58;1.02;;;11.40;99.90;;;;;;5042360;28;20028;-36
2023/11/02 00:27:15;;;;;;;2.78;0.80;;;11.40;99.90;;;;;;5041550;28;20760;-37
2023/11/02 00:29:43;;;;;;;2.30;0.93;;;11.40;99.90;;;;;;5041068;28;20059;-36
2023/11/02 00:32:09;;;;;;;1.83;0.75;;;11.40;99.90;;;;;;5042190;28;20021;-35
2023/11/02 00:34:39;;;;;;;3.08;1.00;;;11.50;99.90;;;;;;5041891;28;20040;-38
2023/11/02 00:37:06;;;;;;;1.17;0.80;;;11.50;99.90;;;;;;5031236;28;20107;-37
2023/11/02 00:39:32;;;;;;;2.58;1.02;;;11.50;99.90;;;;;;5042292;28;20458;-36
2023/11/02 00:41:58;;;;;;;1.80;0.70;;;11.50;99.90;;;;;;5042796;28;20527;-36
2023/11/02 00:44:25;;;;;;;0.93;0.63;;;11.50;99.90;;;;;;5043161;28;20088;-35
2023/11/02 00:46:51;;;;;;;2.17;0.70;;;11.50;99.90;;;;;;5042590;28;20518;-36
2023/11/02 00:49:35;;;;;;;2.53;0.90;;;11.50;99.90;;;;;;5041380;28;20173;-36
2023/11/02 00:52:02;;;;;;;1.08;0.77;;;11.50;99.90;;;;;;5040708;28;20032;-36
2023/11/02 00:54:52;;;;;;;3.17;0.93;;;11.40;99.90;;;;;;5041639;28;20032;-35
2023/11/02 00:57:22;;;;;;;1.48;0.80;;;11.40;99.90;;;;;;5036728;28;20027;-36
2023/11/02 00:59:48;;;;;;;2.03;0.80;;;11.50;99.90;;;;;;5041751;28;20025;-36
2023/11/02 01:02:14;;;;;;;3.47;1.25;;;11.40;99.90;;;;;;5040873;28;20032;-36
2023/11/02 01:04:54;;;;;;;1.60;0.70;;;11.50;99.90;;;;;;5041791;28;20078;-36
2023/11/02 01:07:20;;;;;;;0.98;0.50;;;11.50;99.90;;;;;;5041158;28;20028;-36
2023/11/02 01:09:46;;;;;;;0.98;0.50;;;11.50;99.90;;;;;;5041913;28;20032;-36
2023/11/02 01:12:31;;;;;;;1.35;0.57;;;11.50;99.90;;;;;;5040722;28;20380;-36
2023/11/02 01:14:58;;;;;;;1.27;0.80;;;11.50;99.90;;;;;;5041888;28;20112;-36
2023/11/02 01:17:31;;;;;;;2.25;1.17;;;11.50;99.90;;;;;;5040673;28;20044;-36
2023/11/02 01:20:06;;;;;;;1.60;0.80;;;11.50;99.90;;;;;;5040881;28;20044;-36
2023/11/02 01:22:32;;;;;;;1.88;0.73;;;11.50;99.90;;;;;;5041225;28;20032;-37
2023/11/02 01:25:07;;;;;;;1.48;0.70;;;11.50;99.90;;;;;;5041541;28;20025;-35
2023/11/02 01:27:33;;;;;;;0.88;0.60;;;11.50;99.90;;;;;;5040484;28;20086;-35
2023/11/02 01:30:00;;;;;;;1.58;0.60;;;11.40;99.90;;;;;;5040709;28;20040;-37
2023/11/02 01:32:26;;;;;;;1.35;0.80;;;11.50;99.90;;;;;;5039692;28;20459;-36
2023/11/02 01:34:52;;;;;;;1.55;0.80;;;11.50;99.90;;;;;;5040690;28;20614;-35
2023/11/02 01:37:19;;;;;;;1.33;0.70;;;11.50;99.90;;;;;;5041486;28;20029;-37
2023/11/02 01:39:45;;;;;;;0.77;0.70;;;11.50;99.90;;;;;;5040240;28;20400;-38
2023/11/02 01:42:19;;;;;;;2.53;0.70;;;11.50;99.90;;;;;;5040143;28;20025;-36
2023/11/02 01:44:59;;;;;;;1.77;0.75;;;11.50;99.90;;;;;;5040777;28;20032;-36
2023/11/02 01:47:38;;;;;;;1.35;0.70;;;11.50;99.90;;;;;;5039190;28;20040;-37
2023/11/02 01:50:22;;;;;;;2.90;0.88;;;11.60;99.90;;;;;;5040246;28;20720;-36
2023/11/02 01:53:03;;;;;;;3.40;0.95;;;11.50;99.90;;;;;;5040568;28;20028;-37
2023/11/02 01:55:45;;;;;;;2.85;1.05;;;11.50;99.90;;;;;;5039816;28;20021;-36
2023/11/02 01:58:35;;;;;;;1.08;0.60;;;11.50;99.90;;;;;;5040406;28;20098;-36
2023/11/02 02:01:13;;;;;;;1.25;0.70;;;11.50;99.90;;;;;;5039993;28;20573;-36
2023/11/02 02:04:04;;;;;;;1.25;0.60;;;11.50;99.90;;;;;;5040264;28;20483;-36
2023/11/02 02:06:38;;;;;;;1.10;0.57;;;11.60;99.90;;;;;;5020031;28;20029;-35
2023/11/02 02:09:18;;;;;;;1.10;0.60;;;11.60;99.90;;;;;;5035393;28;20044;-36
2023/11/02 02:11:57;;;;;;;2.67;0.65;;;11.50;99.90;;;;;;5021139;28;20022;-36
2023/11/02 02:15:00;;;;;;;1.40;0.60;;;11.60;99.90;;;;;;5037016;28;20029;-38
2023/11/02 02:17:47;;;;;;;1.50;0.80;;;11.50;99.90;;;;;;5040456;28;20040;-35
2023/11/02 02:20:21;;;;;;;3.13;0.70;;;11.60;99.90;;;;;;5037585;28;20029;-37
2023/11/02 02:23:00;;;;;;;4.43;0.80;;;11.50;99.90;;;;;;5040022;28;20733;-36
2023/11/02 02:25:43;;;;;;;2.10;0.90;;;11.50;99.90;;;;;;5038140;28;20036;-37
2023/11/02 02:28:50;;;;;;;2.75;1.00;;;11.60;99.90;;;;;;5039279;28;20090;-36
2023/11/02 02:31:31;;;;;;;2.08;0.90;;;11.60;99.90;;;;;;5020668;28;20048;-35
2023/11/02 02:34:15;;;;;;;1.80;0.80;;;11.60;99.90;;;;;;5040742;28;20074;-37
2023/11/02 02:36:59;;;;;;;1.88;0.93;;;11.60;99.90;;;;;;5039896;28;20142;-35
2023/11/02 02:39:31;;;;;;;3.28;0.80;;;11.60;99.90;;;;;;5040241;28;20057;-35
2023/11/02 02:42:03;;;;;;;2.88;0.70;;;11.60;99.90;;;;;;5040583;28;20110;-36
2023/11/02 02:44:31;;;;;;;2.42;0.85;;;11.60;99.90;;;;;;5039135;28;20768;-37
2023/11/02 02:47:02;;;;;;;2.05;0.82;;;11.60;99.90;;;;;;5040232;28;20079;-36
2023/11/02 02:49:37;;;;;;;1.17;0.60;;;11.60;99.90;;;;;;5040228;28;20041;-36
2023/11/02 02:52:07;;;;;;;3.28;0.88;;;11.70;99.90;;;;;;5039529;28;20036;-35
2023/11/02 02:54:37;;;;;;;1.83;0.73;;;11.70;99.90;;;;;;5039981;28;20052;-36
2023/11/02 02:57:07;;;;;;;1.35;0.80;;;11.70;99.90;;;;;;5039501;28;20066;-36
2023/11/02 02:59:39;;;;;;;4.38;1.00;;;11.70;99.90;;;;;;5039642;28;20403;-36
2023/11/02 03:02:07;;;;;;;1.40;0.70;;;11.70;99.90;;;;;;5039957;28;20543;-37
2023/11/02 03:04:37;;;;;;;2.05;0.70;;;11.80;99.90;;;;;;5039318;28;20266;-36
2023/11/02 03:07:06;;;;;;;3.10;0.85;;;11.80;99.90;;;;;;5039818;28;20094;-36
2023/11/02 03:09:38;;;;;;;2.17;0.80;;;11.80;99.90;;;;;;5039698;28;20902;-38
2023/11/02 03:12:05;;;;;;;;;;;11.80;99.90;;;;;;5039731;28;20082;-36
2023/11/02 03:14:35;;;;;;;1.52;0.63;;;11.80;99.90;;;;;;5040427;28;19934;-36
2023/11/02 03:17:35;;;;;;;1.83;0.70;;;11.80;99.90;;;;;;5035936;28;20033;-35
2023/11/02 03:20:01;;;;;;;1.13;0.63;;;11.80;99.90;;;;;;5039017;28;20021;-35
2023/11/02 03:22:27;;;;;;;3.03;0.80;;;11.80;99.90;;;;;;5042098;28;20047;-35
2023/11/02 03:25:18;;;;;;;3.22;0.80;;;11.90;99.90;;;;;;5042966;28;20057;-36
2023/11/02 03:28:05;;;;;;;2.42;0.65;;;11.90;99.90;;;;;;5042794;28;20496;-37
2023/11/02 03:30:38;;;;;;;1.63;0.70;;;11.90;99.90;;;;;;5043181;28;20040;-40
2023/11/02 03:33:10;;;;;;;2.33;0.70;;;11.90;99.90;;;;;;5032593;28;20021;-37
2023/11/02 03:35:44;;;;;;;1.35;0.65;;;11.90;99.90;;;;;;5043226;28;20055;-34
2023/11/02 03:38:21;;;;;;;2.60;0.70;;;12.00;99.90;;;;;;5032532;28;20354;-35
2023/11/02 03:41:17;;;;;;;2.25;0.85;;;12.00;99.90;;;;;;5042816;28;20127;-35
2023/11/02 03:44:07;;;;;;;2.38;0.70;;;12.00;99.90;;;;;;5036099;28;20064;-35
2023/11/02 03:46:45;;;;;;;1.95;0.65;;;12.00;99.90;;;;;;5042691;28;20028;-37
2023/11/02 03:49:44;;;;;;;2.10;0.70;;;12.10;99.90;;;;;;5043831;28;20052;-36
2023/11/02 03:52:31;;;;;;;2.47;0.75;;;12.00;99.90;;;;;;5035449;28;20134;-36
2023/11/02 03:55:23;;;;;;;2.88;0.90;;;12.00;99.90;;;;;;5042681;28;20099;-37
2023/11/02 03:58:04;;;;;;;2.65;0.70;;;12.00;99.90;;;;;;5039414;28;20044;-37
2023/11/02 04:00:34;;;;;;;2.53;0.75;;;12.10;99.90;;;;;;5042116;28;20031;-36
2023/11/02 04:03:01;;;;;;;2.22;0.75;;;12.10;99.90;;;;;;5042179;28;20060;-36
2023/11/02 04:05:31;;;;;;;1.20;0.60;;;12.10;99.90;;;;;;5042994;28;20095;-36
2023/11/02 04:08:17;;;;;;;2.97;1.00;;;12.10;99.90;;;;;;5041626;28;20056;-36
2023/11/02 04:11:13;;;;;;;1.88;0.70;;;12.10;99.90;;;;;;5022571;28;20400;-36
2023/11/02 04:13:48;;;;;;;3.95;0.80;;;12.10;99.90;;;;;;5042405;28;20033;-36
2023/11/02 04:16:14;;;;;;;1.42;0.70;;;12.10;99.90;;;;;;5041364;28;20014;-37
2023/11/02 04:18:43;;;;;;;3.33;1.13;;;12.20;99.90;;;;;;5041866;28;20041;-36
2023/11/02 04:21:10;;;;;;;3.53;0.90;;;12.10;99.90;;;;;;5042340;28;20025;-36
2023/11/02 04:23:36;;;;;;;2.45;0.80;;;12.20;99.90;;;;;;5041635;28;20119;-36
2023/11/02 04:26:02;;;;;;;3.38;0.95;;;12.20;99.90;;;;;;5022420;28;20101;-37
2023/11/02 04:28:27;;;;;;;2.22;0.93;;;12.20;99.90;;;;;;5036087;28;20067;-36
2023/11/02 04:30:53;;;;;;;2.13;1.00;;;12.20;99.90;;;;;;5042285;28;20647;-37
2023/11/02 04:33:19;;;;;;;1.85;0.80;;;12.20;99.90;;;;;;5040553;28;20534;-36
2023/11/02 04:35:44;;;;;;;0.85;0.63;;;12.20;99.90;;;;;;5041688;28;20127;-37
2023/11/02 04:38:10;;;;;;;3.40;1.15;;;12.20;99.90;;;;;;5041987;28;20388;-37
2023/11/02 04:40:39;;;;;;;2.17;0.90;;;12.20;99.90;;;;;;5042596;28;20052;-42
2023/11/02 04:43:05;;;;;;;2.20;0.90;;;12.20;99.90;;;;;;5040926;28;20792;-36
2023/11/02 04:45:31;;;;;;;1.20;0.68;;;12.20;99.90;;;;;;5041372;28;20025;-36
2023/11/02 04:47:57;;;;;;;1.95;0.93;;;12.20;99.90;;;;;;5040983;28;20748;-37
2023/11/02 04:50:23;;;;;;;1.77;0.88;;;12.20;99.90;;;;;;5040822;28;20040;-36
2023/11/02 04:52:49;;;;;;;3.22;0.70;;;12.20;99.90;;;;;;5040493;28;20028;-37
2023/11/02 04:55:19;;;;;;;2.15;0.77;;;12.20;99.90;;;;;;5041058;28;20029;-35
2023/11/02 04:57:45;;;;;;;2.15;0.90;;;12.30;99.90;;;;;;5041131;28;20051;-35
2023/11/02 05:00:12;;;;;;;2.60;1.40;;;12.30;99.90;;;;;;5040936;28;20398;-36
2023/11/02 05:02:37;;;;;;;2.22;0.70;;;12.30;99.90;;;;;;5041774;28;20040;-36
2023/11/02 05:05:03;;;;;;;1.63;0.75;;;12.30;99.90;;;;;;5040781;28;20466;-35
2023/11/02 05:07:29;;;;;;;1.58;0.90;;;12.30;99.90;;;;;;5042273;28;20055;-41
2023/11/02 05:09:55;;;;;;;2.58;0.85;;;12.30;99.90;;;;;;5041491;28;20036;-36
2023/11/02 05:12:20;;;;;;;2.83;0.90;;;12.30;99.90;;;;;;5041135;28;20025;-37
2023/11/02 05:14:46;;;;;;;2.75;0.95;;;12.30;99.90;;;;;;5041759;28;20028;-36
2023/11/02 05:17:12;;;;;;;2.88;1.10;;;12.30;99.90;;;;;;5041464;28;20998;-36
2023/11/02 05:19:38;;;;;;;3.67;0.80;;;12.30;99.90;;;;;;5040760;28;20035;-36
2023/11/02 05:22:04;;;;;;;2.97;0.88;;;12.30;99.90;;;;;;5041411;28;20017;-35
2023/11/02 05:24:30;;;;;;;1.73;0.80;;;12.30;99.90;;;;;;5040109;28;20166;-36
2023/11/02 05:26:55;;;;;;;2.25;1.00;;;12.30;99.90;;;;;;5041610;28;20047;-36
2023/11/02 05:29:21;;;;;;;2.63;0.95;;;12.40;99.90;;;;;;5040949;28;20037;-36
2023/11/02 05:31:47;;;;;;;1.58;0.90;;;12.40;99.90;;;;;;5040702;28;20032;-35
2023/11/02 05:34:13;;;;;;;2.28;1.05;;;12.40;99.90;;;;;;5040338;28;20029;-37
2023/11/02 05:36:38;;;;;;;1.88;0.70;;;12.40;99.90;;;;;;5040914;28;20386;-36
2023/11/02 05:39:05;;;;;;;2.25;0.93;;;12.40;99.90;;;;;;5040342;28;20044;-38
2023/11/02 05:41:31;;;;;;;3.47;1.00;;;12.40;99.90;;;;;;5040675;28;20388;-36
2023/11/02 05:43:57;;;;;;;2.65;1.00;;;12.40;99.90;;;;;;5040551;28;20419;-36
2023/11/02 05:46:22;;;;;;;2.80;1.17;;;12.40;99.90;;;;;;5039752;28;20049;-36
2023/11/02 05:48:48;;;;;;;3.33;0.98;;;12.40;99.90;;;;;;5043992;28;20037;-36
2023/11/02 05:51:14;;;;;;;1.58;0.73;;;12.40;99.90;;;;;;5046297;28;20388;-36
2023/11/02 05:53:39;;;;;;;2.50;0.80;;;12.50;99.90;;;;;;5040350;28;20028;-36
2023/11/02 05:56:05;;;;;;;3.05;0.73;;;12.50;99.90;;;;;;5040008;28;20676;-36
2023/11/02 05:58:31;;;;;;;1.27;1.05;;;12.50;99.90;;;;;;5040617;28;20036;-37
2023/11/02 06:00:57;;;;;;;2.33;1.00;;;12.50;99.90;;;;;;5039352;28;20025;-36
2023/11/02 06:03:26;;;;;;;2.05;1.00;;;12.50;99.90;;;;;;5038077;28;20029;-36
2023/11/02 06:05:53;;;;;;;1.92;1.02;;;12.50;99.90;;;;;;5039900;28;20499;-35
2023/11/02 06:08:19;;;;;;;1.02;0.80;;;12.50;99.90;;;;;;5039041;28;20077;-37
2023/11/02 06:10:45;;;;;;;1.38;0.75;;;12.50;99.90;;;;;;5040035;28;20482;-36
2023/11/02 06:13:10;;;;;;;1.52;0.80;;;12.50;99.90;;;;;;5038149;28;20032;-36
2023/11/02 06:15:36;;;;;;;1.30;0.80;;;12.50;99.90;;;;;;5038868;28;20062;-36
2023/11/02 06:18:02;;;;;;;1.17;0.90;;;12.50;99.90;;;;;;5039449;28;20024;-36
2023/11/02 06:20:32;;;;;;;2.25;0.70;;;12.50;99.90;;;;;;5039661;28;20498;-35
2023/11/02 06:22:57;;;;;;;2.72;1.02;;;12.40;99.90;;;;;;5037952;28;20048;-37
2023/11/02 06:25:24;;;;;;;2.10;1.08;;;12.40;99.90;;;;;;5039617;28;20033;-36
2023/11/02 06:27:50;;;;;;;1.00;0.70;;;12.40;99.90;;;;;;5038767;28;20650;-37
2023/11/02 06:30:15;;;;;;;1.52;1.00;;;12.40;99.90;;;;;;5038813;28;20041;-38
2023/11/02 06:32:41;;;;;;;2.40;0.88;;;12.40;99.90;;;;;;5038774;28;20811;-37
2023/11/02 06:35:07;;;;;;;3.13;1.00;;;12.40;99.90;;;;;;5038540;28;20041;-36
2023/11/02 06:37:32;;;;;;;1.13;0.80;;;12.40;99.90;;;;;;5038276;28;20102;-36
2023/11/02 06:39:59;;;;;;;2.20;0.77;;;12.40;99.90;;;;;;5039658;28;20032;-37
2023/11/02 06:42:27;;;;;;;1.50;0.70;;;12.40;99.90;;;;;;5038443;28;20681;-37
2023/11/02 06:44:52;;;;;;;2.22;0.82;;;12.40;99.90;;;;;;5039997;28;20033;-35
2023/11/02 06:47:18;;;;;;;1.60;0.70;;;12.50;99.90;;;;;;5039489;28;20029;-36
2023/11/02 06:49:44;;;;;;;1.42;0.80;;;12.40;99.90;;;;;;5038716;28;20040;-39
2023/11/02 06:52:09;;;;;;;1.17;0.70;;;12.40;99.90;;;;;;5039483;28;20029;-36
2023/11/02 06:54:35;;;;;;;2.38;0.95;;;12.40;99.90;;;;;;5039894;28;20727;-37
2023/11/02 06:57:01;;;;;;;2.88;1.08;;;12.40;99.90;;;;;;5040749;28;20090;-37
2023/11/02 06:59:27;;;;;;;1.40;0.63;;;12.30;99.90;;;;;;5043564;28;20025;-36
2023/11/02 07:01:53;;;;;;;3.28;0.60;;;12.20;99.90;;;;;;5044690;28;20070;-36
2023/11/02 07:04:20;;;;;;;2.28;0.80;;;12.20;99.90;;;;;;5042220;28;20103;-35
2023/11/02 07:06:45;;;;;;;3.90;0.82;;;12.10;99.90;;;;;;5044734;28;20028;-36
2023/11/02 07:09:11;;;;;;;1.13;0.70;;;12.10;99.90;;;;;;5043948;28;20041;-36
2023/11/02 07:11:37;;;;;;;1.73;0.98;;;12.10;99.90;;;;;;5043616;28;20021;-36
2023/11/02 07:14:02;;;;;;;1.65;0.70;;;12.10;99.90;;;;;;5043418;28;20033;-36
2023/11/02 07:16:28;;;;;;;1.08;0.70;;;12.00;99.90;;;;;;5043228;28;20476;-36
2023/11/02 07:18:55;;;;;;;2.35;1.00;;;12.00;99.90;;;;;;5042255;28;20017;-37
2023/11/02 07:21:21;;;;;;;0.80;0.70;;;12.00;99.90;;;;;;5043197;28;20025;-37
2023/11/02 07:23:49;;;;;;;1.58;0.70;;;12.00;99.90;;;;;;5043421;28;20442;-36
2023/11/02 07:26:16;;;;;;;1.38;0.77;;;11.90;99.90;;;;;;5043087;28;20104;-37
2023/11/02 07:28:41;;;;;;;3.75;0.77;;;11.90;99.90;;;;;;5043479;28;20033;-38
2023/11/02 07:31:08;;;;;;;1.48;0.60;;;12.00;99.90;;;;;;5042811;28;20020;-34
2023/11/02 07:33:39;;;;;;;1.08;0.60;;;12.00;99.90;;;;;;5043759;28;20423;-36
2023/11/02 07:36:13;;;;;;;1.95;0.80;;;12.00;99.90;;;;;;5031896;28;20088;-36
2023/11/02 07:38:38;;;;;;;2.15;1.02;;;11.90;99.90;;;;;;5043039;28;20497;-35
2023/11/02 07:41:06;;;;;;;1.10;0.50;;;12.00;99.90;;;;;;5043674;28;20025;-36
2023/11/02 07:43:32;;;;;;;1.85;0.63;;;11.90;99.90;;;;;;5040711;28;20354;-36
2023/11/02 07:45:58;;;;;;;1.05;0.60;;;12.00;99.90;;;;;;5037753;28;20337;-36
2023/11/02 07:48:23;;;;;;;1.77;0.50;;;12.00;99.90;;;;;;5042461;28;20036;-36
2023/11/02 07:50:49;;;;;;;1.55;0.63;;;12.00;99.90;;;;;;5041857;28;20654;-36
2023/11/02 07:53:15;;;;;;;1.33;0.60;;;12.10;99.90;;;;;;5041066;28;20029;-36
2023/11/02 07:55:43;;;;;;;3.28;0.70;;;12.10;99.90;;;;;;5042540;28;20060;-40
2023/11/02 07:58:09;;;;;;;1.10;0.60;;;12.20;99.90;;;;;;5022268;28;20034;-37
2023/11/02 08:00:34;;;;;;;1.05;0.68;;;12.30;99.90;;;;;;5035852;28;20038;-37
2023/11/02 08:03:00;;;;;;;1.33;0.60;;;12.30;99.90;;;;;;5042618;28;20479;-36
2023/11/02 08:05:25;;;;;;;1.55;0.70;;;12.40;99.90;;;;;;5042960;28;20500;-37
2023/11/02 08:07:51;;;;;;;1.80;0.60;;;12.50;99.90;;;;;;5042586;28;20095;-37
2023/11/02 08:10:17;;;;;;;1.00;0.60;;;12.50;99.90;;;;;;5042132;28;20115;-36
2023/11/02 08:12:42;;;;;;;1.88;0.50;;;12.60;99.90;;;;;;5043082;28;20029;-38
2023/11/02 08:15:08;;;;;;;1.67;0.60;;;12.70;99.90;;;;;;5041177;28;20032;-36
2023/11/02 08:17:34;;;;;;;2.38;0.60;;;12.70;99.90;;;;;;5042976;28;20592;-37
2023/11/02 08:20:00;;;;;;;1.48;0.63;;;12.80;99.90;;;;;;5042408;28;20021;-35
2023/11/02 08:22:26;;;;;;;0.70;0.50;;;12.80;99.90;;;;;;5041712;28;20072;-37
2023/11/02 08:24:51;;;;;;;1.02;0.50;;;12.90;99.90;;;;;;5042655;28;20033;-38
2023/11/02 08:27:17;;;;;;;0.52;0.50;;;13.00;99.90;;;;;;5040776;28;20021;-36
2023/11/02 08:29:43;;;;;;;1.23;0.65;;;13.10;99.90;;;;;;5042529;28;20087;-37
2023/11/02 08:32:08;;;;;;;1.15;0.60;;;13.20;99.90;;;;;;5042503;28;20040;-37
2023/11/02 08:34:34;;;;;;;1.42;0.80;;;13.30;99.90;;;;;;5041612;28;20425;-38
2023/11/02 08:37:00;;;;;;;1.27;0.60;;;13.40;99.90;;;;;;5042402;28;20021;-37
2023/11/02 08:39:26;;;;;;;1.10;0.60;;;13.40;99.90;;;;;;5041989;28;20423;-38
2023/11/02 08:41:51;;;;;;;1.33;0.60;;;13.40;99.90;;;;;;5041015;28;20726;-37
2023/11/02 08:44:17;;;;;;;2.03;0.70;;;13.50;99.90;;;;;;5041455;28;20516;-37
2023/11/02 08:46:42;;;;;;;2.00;0.57;;;13.50;99.90;;;;;;5042071;28;20035;-38
2023/11/02 08:49:08;;;;;;;1.48;0.60;;;13.50;99.90;;;;;;5040456;28;20047;-37
2023/11/02 08:51:34;;;;;;;1.90;0.77;;;13.50;99.90;;;;;;5041196;28;20027;-37
2023/11/02 08:54:03;;;;;;;1.33;0.60;;;13.50;99.90;;;;;;5041893;28;20468;-37
2023/11/02 08:56:29;;;;;;;2.83;0.80;;;13.50;99.90;;;;;;5040673;28;20029;-37
2023/11/02 08:58:55;;;;;;;1.50;0.60;;;13.50;99.90;;;;;;5039823;28;20029;-36
2023/11/02 09:01:26;;;;;;;2.15;0.73;;;13.50;99.90;;;;;;5040212;28;20128;-37
2023/11/02 09:03:53;;;;;;;2.70;0.80;;;13.50;99.90;;;;;;5039544;28;20032;-36
2023/11/02 09:06:20;;;;;;;1.23;0.68;;;13.60;99.90;;;;;;5040539;28;20657;-36
2023/11/02 09:08:46;;;;;;;1.15;0.60;;;13.60;99.90;;;;;;5039919;28;20392;-37
2023/11/02 09:11:12;;;;;;;2.35;0.70;;;13.60;99.90;;;;;;5038903;28;20021;-36
2023/11/02 09:13:38;;;;;;;1.00;0.50;;;13.60;99.90;;;;;;5040239;28;20044;-34
2023/11/02 09:16:06;;;;;;;3.50;1.05;;;13.60;99.90;;;;;;5040793;28;20423;-36
2023/11/02 09:18:32;;;;;;;1.30;0.70;;;13.60;99.90;;;;;;5039909;28;20029;-37
2023/11/02 09:20:58;;;;;;;1.88;0.70;;;13.60;99.90;;;;;;5040504;28;20031;-36
2023/11/02 09:23:23;;;;;;;2.75;0.68;;;13.60;99.90;;;;;;5040481;28;20108;-35
2023/11/02 09:25:49;;;;;;;1.13;0.77;;;13.60;99.90;;;;;;5039314;28;20028;-36
2023/11/02 09:28:15;;;;;;;3.20;0.80;;;13.60;99.90;;;;;;5039881;28;20421;-36
2023/11/02 09:30:45;;;;;;;3.15;0.90;;;13.60;99.90;;;;;;5040585;28;20036;-35
2023/11/02 09:33:11;;;;;;;2.03;0.80;;;13.60;99.90;;;;;;5041115;28;20033;-36
2023/11/02 09:35:37;;;;;;;1.73;0.60;;;13.60;99.90;;;;;;5040581;28;20056;-37
2023/11/02 09:38:03;;;;;;;2.78;0.80;;;13.70;99.90;;;;;;5039538;28;20029;-37
2023/11/02 09:40:29;;;;;;;1.77;0.68;;;13.80;99.90;;;;;;5040362;28;20681;-43
2023/11/02 09:42:55;;;;;;;4.72;1.10;;;13.80;99.90;;;;;;5040477;28;20028;-36
2023/11/02 09:45:21;;;;;;;1.88;0.70;;;13.80;99.90;;;;;;5039465;28;20025;-35
2023/11/02 09:47:47;;;;;;;2.78;0.90;;;13.90;99.90;;;;;;5040994;28;20432;-36
2023/11/02 09:50:13;;;;;;;1.65;0.80;;;13.90;99.90;;;;;;5040671;28;20060;-37
2023/11/02 09:52:39;;;;;;;1.48;0.68;;;14.00;99.90;;;;;;5040377;28;20519;-37
2023/11/02 09:55:05;;;;;;;2.88;0.90;;;14.10;99.90;;;;;;5040961;28;20025;-37
2023/11/02 09:57:38;;;;;;;3.58;0.75;;;14.20;99.90;;;;;;5040274;28;20021;-37
2023/11/02 10:00:07;;;;;;;;;;;14.30;99.90;;;;;;5038330;28;20029;-37
2023/11/02 10:02:34;;;;;;;3.85;1.20;;;14.40;99.90;;;;;;5040677;28;19913;-36
2023/11/02 10:05:00;;;;;;;3.28;1.08;;;14.60;99.90;;;;;;5039483;28;20031;-37
2023/11/02 10:07:25;;;;;;;2.55;1.00;;;14.70;99.90;;;;;;5019948;28;20033;-37
2023/11/02 10:09:51;;;;;;;3.13;0.85;;;14.90;99.90;;;;;;5034387;28;20039;-36
2023/11/02 10:12:18;;;;;;;3.72;1.20;;;15.10;99.90;;;;;;5039881;28;20574;-37
2023/11/02 10:14:43;;;;;;;3.40;1.00;;;15.20;99.90;;;;;;5039984;28;20051;-36
2023/11/02 10:17:11;;;;;;;2.42;0.90;;;15.20;99.90;;;;;;5040157;28;20484;-38
2023/11/02 10:19:40;;;;;;;4.43;1.00;;;15.30;99.90;;;;;;5040026;28;20036;-36
2023/11/02 10:22:06;;;;;;;2.75;0.70;;;15.30;99.90;;;;;;5039252;28;20025;-37
2023/11/02 10:24:35;;;;;;;4.10;0.88;;;15.50;99.90;;;;;;5039665;28;20029;-38
2023/11/02 10:27:05;;;;;;;4.05;1.08;;;15.50;99.90;;;;;;5039288;28;20033;-37
2023/11/02 10:29:31;;;;;;;6.18;1.27;;;15.60;99.90;;;;;;5040052;28;20033;-37
2023/11/02 10:31:57;;;;;;;3.35;0.98;;;15.60;99.90;;;;;;5031845;28;20025;-38
2023/11/02 10:34:25;;;;;;;3.35;1.08;;;15.70;99.90;;;;;;5044112;28;20140;-36
2023/11/02 10:36:52;;;;;;;4.13;1.23;;;15.70;99.90;;;;;;5044265;28;20052;-36
2023/11/02 10:39:25;;;;;;;4.63;1.33;;;15.70;99.90;;;;;;5042960;28;20064;-36
2023/11/02 10:41:53;;;;;;;;;;;15.70;99.90;;;;;;5040154;28;20460;-37
2023/11/02 10:44:19;;;;;;;2.42;0.80;;;15.70;99.90;;;;;;5044340;28;19909;-37
2023/11/02 10:46:46;;;;;;;4.80;1.25;;;15.70;99.90;;;;;;5044092;28;20036;-37
2023/11/02 10:49:13;;;;;;;5.60;1.10;;;15.70;99.90;;;;;;5042818;28;20609;-39
2023/11/02 10:51:43;;;;;;;4.45;1.00;;;15.70;99.90;;;;;;5044013;28;20159;-39
2023/11/02 10:54:22;;;;;;;2.78;0.95;;;15.60;99.90;;;;;;5044030;28;20045;-37
2023/11/02 10:57:00;;;;;;;4.95;1.00;;;15.60;99.90;;;;;;5043882;28;20033;-38
2023/11/02 10:59:27;;;;;;;4.95;1.27;;;15.60;99.90;;;;;;5043338;28;20043;-37
2023/11/02 11:01:54;;;;;;;4.72;1.27;;;15.70;99.90;;;;;;5043798;28;20029;-38
2023/11/02 11:04:20;;;;;;;3.45;1.10;;;15.70;99.90;;;;;;5023546;28;20037;-37
2023/11/02 11:06:47;;;;;;;6.38;1.00;;;15.70;99.90;;;;;;5038070;28;20033;-38
2023/11/02 11:09:14;;;;;;;5.28;1.38;;;15.70;99.90;;;;;;5042304;28;20887;-36
2023/11/02 11:11:40;;;;;;;5.63;1.13;;;15.80;99.90;;;;;;5043819;28;20013;-37
2023/11/02 11:14:06;;;;;;;3.35;0.90;;;15.80;99.90;;;;;;5043320;28;20836;-37
2023/11/02 11:16:34;;;;;;;5.82;1.17;;;15.80;99.90;;;;;;5042382;28;20017;-38
2023/11/02 11:19:00;;;;;;;6.97;1.33;;;15.80;99.90;;;;;;5044381;28;20029;-37
2023/11/02 11:21:27;;;;;;;3.55;1.23;;;15.80;99.90;;;;;;5043609;28;20029;-38
2023/11/02 11:23:53;;;;;;;5.43;1.48;;;15.80;99.90;;;;;;5043796;28;20029;-37
2023/11/02 11:26:20;;;;;;;6.53;1.02;;;15.90;99.90;;;;;;5044525;28;20052;-38
2023/11/02 11:28:48;;;;;;;3.40;1.15;;;15.90;99.90;;;;;;5044467;28;20214;-36
2023/11/02 11:31:53;;;;;;;6.05;1.10;;;16.00;99.90;;;;;;5042489;28;20029;-36
2023/11/02 11:34:19;;;;;;;5.03;1.40;;;16.10;99.90;;;;;;5011843;28;20060;-37
2023/11/02 11:36:44;;;;;;;4.47;1.23;;;16.10;99.90;;;;;;5020667;28;20049;-37
2023/11/02 11:39:31;;;;;;;5.43;1.30;;;16.10;99.90;;;;;;5029252;28;20033;-37
2023/11/02 11:41:58;;;;;;;4.90;1.33;;;16.10;99.90;;;;;;5041937;28;20502;-38
2023/11/02 11:44:24;;;;;;;4.60;1.10;;;16.10;99.90;;;;;;5042573;28;20025;-37
2023/11/02 11:46:56;;;;;;;5.93;1.20;;;16.10;99.90;;;;;;5043944;28;20025;-37
2023/11/02 11:49:39;;;;;;;3.50;1.10;;;16.10;99.90;;;;;;5043146;28;20655;-43
2023/11/02 11:52:22;;;;;;;;;;;16.10;99.90;;;;;;5043456;28;20131;-39
2023/11/02 11:54:47;;;;;;;4.75;1.08;;;16.10;99.90;;;;;;5032813;28;20676;-39
2023/11/02 11:57:57;;;;;;;3.25;0.98;;;16.20;99.90;;;;;;5043339;28;20029;-37
2023/11/02 12:00:24;;;;;;;3.75;1.17;;;16.20;99.90;;;;;;5034794;28;20118;-37
2023/11/02 12:02:54;;;;;;;3.35;0.88;;;16.20;99.90;;;;;;5042628;28;20021;-39
2023/11/02 12:05:56;;;;;;;5.28;1.35;;;16.10;99.90;;;;;;5042129;28;20021;-37
2023/11/02 12:08:22;;;;;;;6.22;1.20;;;16.10;99.90;;;;;;5019674;28;20120;-38
2023/11/02 12:10:51;;;;;;;4.28;1.30;;;16.00;99.90;;;;;;5038420;28;20499;-38
2023/11/02 12:13:16;;;;;;;5.20;1.00;;;15.90;99.90;;;;;;5041783;28;20017;-37
2023/11/02 12:15:58;;;;;;;4.95;1.20;;;15.70;99.90;;;;;;5043418;28;20021;-36
2023/11/02 12:18:25;;;;;;;4.57;1.40;;;15.50;99.90;;;;;;5042777;28;20063;-39
2023/11/02 12:20:51;;;;;;;2.72;0.90;;;15.40;99.90;;;;;;5041924;28;20423;-37
2023/11/02 12:23:16;;;;;;;3.40;1.00;;;15.30;99.90;;;;;;5041591;28;20490;-37
2023/11/02 12:25:42;;;;;;;5.45;1.42;;;15.30;99.90;;;;;;5042305;28;20033;-37
2023/11/02 12:28:11;;;;;;;4.32;1.40;;;15.30;99.90;;;;;;5041578;28;20032;-38
2023/11/02 12:30:47;;;;;;;5.25;1.20;;;15.40;99.90;;;;;;5041767;28;20088;-37
2023/11/02 12:33:23;;;;;;;5.25;1.20;;;15.50;99.90;;;;;;5040785;28;20049;-36
2023/11/02 12:35:53;;;;;;;4.97;1.45;;;15.50;99.90;;;;;;5039036;28;20120;-37
2023/11/02 12:38:49;;;;;;;6.82;1.80;;;15.60;99.90;;;;;;5040341;28;20032;-37
2023/11/02 12:41:27;;;;;;;3.70;1.88;;;15.60;99.90;;;;;;5038644;28;20559;-37
2023/11/02 12:44:05;;;;;;;8.82;2.47;;;15.70;99.90;;;;;;5040169;28;20108;-38
2023/11/02 12:46:36;;;;;;;6.38;1.55;;;15.60;99.90;;;;;;5029593;28;20062;-36
2023/11/02 12:49:20;;;;;;;4.57;1.48;;;15.70;99.90;;;;;;5039247;28;20036;-45
2023/11/02 12:51:49;;;;;;;4.53;1.10;;;15.70;99.90;;;;;;5031278;28;20139;-38
2023/11/02 12:54:16;;;;;;;2.60;1.10;;;15.70;99.90;;;;;;5040299;28;20036;-37
2023/11/02 12:56:44;;;;;;;3.33;1.30;;;15.70;99.70;;;;;;5040722;28;20036;-37
2023/11/02 12:59:10;;;;;;;2.53;1.00;;;15.70;99.40;;;;;;5040884;28;20035;-37
2023/11/02 13:02:03;;;;;;;4.30;1.20;;;15.70;99.60;;;;;;5040843;28;20043;-38
2023/11/02 13:04:48;;;;;;;;;;;15.70;99.20;;;;;;5041960;28;20116;-39